createdAt,value
2019-01-09T00:01:33.390Z,30.60
2019-01-09T00:04:03.080Z,29.20
2019-01-09T00:06:32.459Z,27.30
2019-01-09T00:09:01.812Z,27.00
2019-01-09T00:11:32.337Z,24.30
2019-01-09T00:14:01.798Z,26.53
2019-01-09T00:16:31.292Z,31.80
2019-01-09T00:19:00.700Z,26.80
2019-01-09T00:21:30.214Z,24.33
2019-01-09T00:23:59.649Z,25.77
2019-01-09T00:26:29.163Z,28.27
2019-01-09T00:28:58.574Z,25.93
2019-01-09T00:31:27.984Z,29.03
2019-01-09T00:33:57.470Z,27.83
2019-01-09T00:36:26.986Z,28.40
2019-01-09T00:38:56.488Z,28.03
2019-01-09T00:41:25.896Z,28.53
2019-01-09T00:43:55.458Z,27.33
2019-01-09T00:46:25.179Z,29.13
2019-01-09T00:48:54.608Z,25.77
2019-01-09T00:51:24.186Z,27.97
2019-01-09T00:53:53.566Z,27.00
2019-01-09T00:56:23.231Z,26.43
2019-01-09T00:58:53.517Z,25.50
2019-01-09T01:01:22.936Z,26.17
2019-01-09T01:03:55.646Z,25.30
2019-01-09T01:06:31.231Z,24.77
2019-01-09T01:09:26.205Z,27.37
2019-01-09T01:12:18.232Z,26.07
2019-01-09T01:15:07.810Z,26.20
2019-01-09T01:17:57.111Z,25.47
2019-01-09T01:20:41.747Z,24.97
2019-01-09T01:23:30.488Z,26.20
2019-01-09T01:26:34.893Z,26.77
2019-01-09T01:29:13.441Z,23.67
2019-01-09T01:31:46.313Z,27.00
2019-01-09T01:34:39.557Z,26.27
2019-01-09T01:37:36.261Z,25.23
2019-01-09T01:40:20.398Z,23.37
2019-01-09T01:43:09.405Z,23.03
2019-01-09T01:45:54.168Z,25.67
2019-01-09T01:48:56.238Z,27.10
2019-01-09T01:51:48.300Z,24.40
2019-01-09T01:54:43.285Z,26.67
2019-01-09T01:57:42.852Z,25.73
2019-01-09T02:00:33.452Z,24.87
2019-01-09T02:03:06.093Z,24.43
2019-01-09T02:05:38.710Z,23.07
2019-01-09T02:08:19.547Z,22.93
2019-01-09T02:10:58.143Z,24.67
2019-01-09T02:13:30.791Z,24.50
2019-01-09T02:16:27.315Z,23.23
2019-01-09T02:19:08.917Z,25.33
2019-01-09T02:21:59.489Z,29.23
2019-01-09T02:24:43.810Z,25.33
2019-01-09T02:27:34.214Z,25.90
2019-01-09T02:30:32.534Z,22.77
2019-01-09T02:33:02.018Z,27.67
2019-01-09T02:35:31.578Z,27.80
2019-01-09T02:38:00.980Z,27.50
2019-01-09T02:40:30.508Z,27.47
2019-01-09T02:43:00.045Z,27.07
2019-01-09T02:45:29.480Z,28.50
2019-01-09T02:47:59.047Z,25.50
2019-01-09T02:50:28.478Z,31.67
2019-01-09T02:52:57.951Z,32.57
2019-01-09T02:55:27.373Z,26.83
2019-01-09T02:57:57.925Z,27.27
2019-01-09T03:00:27.729Z,30.77
2019-01-09T03:02:57.276Z,29.30
2019-01-09T03:05:26.683Z,30.37
2019-01-09T03:07:56.179Z,28.47
2019-01-09T03:10:25.989Z,31.87
2019-01-09T03:12:55.690Z,31.57
2019-01-09T03:15:25.875Z,31.43
2019-01-09T03:17:55.488Z,34.23
2019-01-09T03:20:24.756Z,27.87
2019-01-09T03:22:54.223Z,35.07
2019-01-09T03:25:23.781Z,33.70
2019-01-09T03:27:53.371Z,35.83
2019-01-09T03:30:22.745Z,33.63
2019-01-09T03:32:52.241Z,34.73
2019-01-09T03:35:21.733Z,32.27
2019-01-09T03:37:51.060Z,34.67
2019-01-09T03:40:20.604Z,35.53
2019-01-09T03:42:50.176Z,32.10
2019-01-09T03:45:19.686Z,35.60
2019-01-09T03:47:49.205Z,32.67
2019-01-09T03:50:18.626Z,34.07
2019-01-09T03:52:48.140Z,32.60
2019-01-09T03:55:17.653Z,32.20
2019-01-09T03:57:47.297Z,29.87
2019-01-09T04:00:16.943Z,30.07
2019-01-09T04:02:46.634Z,28.63
2019-01-09T04:05:16.218Z,25.60
2019-01-09T04:07:45.799Z,29.20
2019-01-09T04:10:15.277Z,31.87
2019-01-09T04:12:45.838Z,29.67
2019-01-09T04:15:15.381Z,24.90
2019-01-09T04:17:44.686Z,25.67
2019-01-09T04:20:14.295Z,27.27
2019-01-09T04:22:43.755Z,26.67
2019-01-09T04:25:14.945Z,27.90
2019-01-09T04:27:44.294Z,28.93
2019-01-09T04:30:13.850Z,26.43
2019-01-09T04:32:43.355Z,29.63
2019-01-09T04:35:12.803Z,27.47
2019-01-09T04:37:42.204Z,30.53
2019-01-09T04:40:11.728Z,30.47
2019-01-09T04:42:41.148Z,26.30
2019-01-09T04:45:10.431Z,29.83
2019-01-09T04:47:40.094Z,25.00
2019-01-09T04:50:09.652Z,28.37
2019-01-09T04:52:38.961Z,29.53
2019-01-09T04:55:08.580Z,28.73
2019-01-09T04:57:37.980Z,28.10
2019-01-09T05:00:08.112Z,30.77
2019-01-09T05:02:37.521Z,29.90
2019-01-09T05:05:06.952Z,27.07
2019-01-09T05:07:36.265Z,29.13
2019-01-09T05:10:07.455Z,28.37
2019-01-09T05:12:36.915Z,28.73
2019-01-09T05:15:06.370Z,32.07
2019-01-09T05:17:35.760Z,31.33
2019-01-09T05:20:05.741Z,30.73
2019-01-09T05:22:35.057Z,30.80
2019-01-09T05:25:04.537Z,28.37
2019-01-09T05:27:34.094Z,30.23
2019-01-09T05:30:03.826Z,29.50
2019-01-09T05:32:34.428Z,31.07
2019-01-09T05:35:03.828Z,27.10
2019-01-09T05:37:33.204Z,28.07
2019-01-09T05:40:03.727Z,29.13
2019-01-09T05:42:33.918Z,30.67
2019-01-09T05:45:03.636Z,31.30
2019-01-09T05:47:33.147Z,30.53
2019-01-09T05:50:02.755Z,30.17
2019-01-09T05:52:32.320Z,33.77
2019-01-09T05:55:01.913Z,33.07
2019-01-09T05:57:31.464Z,32.13
2019-01-09T06:00:00.955Z,33.53
2019-01-09T06:02:30.656Z,33.50
2019-01-09T06:05:00.336Z,33.10
2019-01-09T06:07:30.227Z,31.87
2019-01-09T06:09:59.693Z,34.50
2019-01-09T06:12:29.079Z,35.23
2019-01-09T06:14:58.666Z,30.50
2019-01-09T06:17:28.200Z,34.17
2019-01-09T06:19:57.709Z,32.67
2019-01-09T06:22:27.210Z,34.63
2019-01-09T06:24:56.723Z,31.43
2019-01-09T06:27:26.307Z,34.50
2019-01-09T06:29:55.833Z,33.07
2019-01-09T06:32:25.189Z,39.70
2019-01-09T06:34:54.567Z,34.33
2019-01-09T06:37:27.515Z,33.00
2019-01-09T06:39:55.135Z,33.50
2019-01-09T06:42:24.565Z,31.37
2019-01-09T06:44:53.992Z,33.83
2019-01-09T06:47:23.588Z,35.83
2019-01-09T06:49:53.970Z,36.70
2019-01-09T06:52:23.365Z,32.67
2019-01-09T06:54:52.749Z,35.30
2019-01-09T06:57:22.201Z,33.00
2019-01-09T06:59:51.611Z,33.53
2019-01-09T07:02:20.934Z,37.70
2019-01-09T07:04:50.389Z,33.20
2019-01-09T07:07:20.131Z,38.67
2019-01-09T07:09:49.627Z,35.40
2019-01-09T07:12:19.617Z,42.43
2019-01-09T07:14:48.981Z,36.83
2019-01-09T07:17:18.348Z,40.97
2019-01-09T07:19:47.719Z,37.47
2019-01-09T07:22:17.142Z,45.03
2019-01-09T07:24:46.577Z,45.10
2019-01-09T07:27:15.995Z,42.70
2019-01-09T07:29:45.419Z,42.23
2019-01-09T07:32:14.866Z,40.40
2019-01-09T07:34:44.194Z,39.70
2019-01-09T07:37:13.610Z,40.63
2019-01-09T07:39:42.976Z,42.87
2019-01-09T07:42:12.428Z,40.70
2019-01-09T07:44:42.040Z,40.23
2019-01-09T07:47:11.598Z,36.40
2019-01-09T07:49:41.126Z,43.27
2019-01-09T07:52:10.684Z,43.93
2019-01-09T07:54:40.313Z,44.23
2019-01-09T07:57:09.817Z,38.57
2019-01-09T07:59:39.525Z,45.43
2019-01-09T08:02:09.443Z,33.63
2019-01-09T08:04:38.939Z,41.73
2019-01-09T08:07:08.440Z,37.13
2019-01-09T08:09:37.750Z,34.87
2019-01-09T08:12:07.755Z,35.28
2019-01-09T08:14:37.126Z,35.47
2019-01-09T08:17:06.486Z,33.47
2019-01-09T08:19:36.051Z,37.63
2019-01-09T08:22:05.449Z,35.63
2019-01-09T08:24:34.995Z,31.20
2019-01-09T08:27:04.452Z,25.50
2019-01-09T08:29:34.034Z,25.03
2019-01-09T08:32:03.616Z,33.60
2019-01-09T08:34:33.020Z,26.63
2019-01-09T08:37:02.427Z,30.70
2019-01-09T08:39:32.468Z,28.83
2019-01-09T08:42:02.531Z,26.65
2019-01-09T08:44:32.779Z,27.45
2019-01-09T08:47:02.191Z,28.53
2019-01-09T08:49:32.472Z,28.42
2019-01-09T08:52:01.908Z,26.47
2019-01-09T08:54:31.934Z,31.15
2019-01-09T08:57:02.076Z,31.45
2019-01-09T08:59:32.015Z,41.40
2019-01-09T09:02:02.042Z,36.15
2019-01-09T09:04:32.560Z,34.77
2019-01-09T09:07:02.249Z,34.90
2019-01-09T09:09:31.782Z,39.47
2019-01-09T09:12:02.256Z,38.65
2019-01-09T09:14:31.730Z,37.23
2019-01-09T09:17:01.476Z,34.20
2019-01-09T09:19:31.500Z,36.85
2019-01-09T09:22:01.113Z,36.23
2019-01-09T09:24:30.513Z,42.33
2019-01-09T09:26:59.862Z,36.13
2019-01-09T09:29:29.455Z,52.60
2019-01-09T09:31:58.963Z,41.27
2019-01-09T09:34:28.523Z,40.03
2019-01-09T09:36:58.611Z,38.10
2019-01-09T09:39:28.137Z,40.93
2019-01-09T09:41:58.416Z,36.60
2019-01-09T09:44:27.797Z,34.60
2019-01-09T09:46:57.247Z,43.97
2019-01-09T09:49:27.248Z,37.67
2019-01-09T09:51:58.122Z,38.50
2019-01-09T09:54:28.156Z,44.48
2019-01-09T09:56:58.197Z,40.03
2019-01-09T09:59:27.643Z,40.20
2019-01-09T10:01:57.651Z,37.98
2019-01-09T10:04:27.715Z,36.25
2019-01-09T10:06:57.739Z,41.35
2019-01-09T10:09:28.901Z,41.13
2019-01-09T10:11:58.985Z,42.43
2019-01-09T10:14:28.911Z,41.30
2019-01-09T10:16:59.169Z,42.38
2019-01-09T10:19:29.136Z,46.95
2019-01-09T10:21:59.176Z,41.77
2019-01-09T10:24:29.294Z,35.17
2019-01-09T10:26:59.568Z,36.53
2019-01-09T10:29:29.799Z,47.20
2019-01-09T10:32:00.015Z,38.33
2019-01-09T10:34:30.308Z,37.65
2019-01-09T10:36:59.914Z,42.62
2019-01-09T10:39:30.124Z,37.83
2019-01-09T10:42:00.319Z,34.45
2019-01-09T10:44:29.712Z,33.27
2019-01-09T10:46:59.479Z,37.65
2019-01-09T10:49:29.041Z,42.80
2019-01-09T10:52:00.175Z,32.93
2019-01-09T10:54:30.233Z,31.93
2019-01-09T10:56:59.828Z,37.43
2019-01-09T10:59:29.823Z,33.60
2019-01-09T11:01:59.585Z,37.97
2019-01-09T11:04:29.168Z,38.90
2019-01-09T11:06:59.242Z,31.52
2019-01-09T11:09:28.603Z,31.57
2019-01-09T11:11:58.959Z,35.45
2019-01-09T11:14:29.115Z,32.15
2019-01-09T11:16:58.542Z,30.93
2019-01-09T11:19:28.180Z,31.90
2019-01-09T11:21:58.309Z,31.17
2019-01-09T11:24:28.453Z,30.20
2019-01-09T11:26:58.637Z,27.32
2019-01-09T11:29:29.112Z,30.25
2019-01-09T11:31:59.195Z,31.37
2019-01-09T11:34:29.450Z,36.80
2019-01-09T11:36:59.640Z,32.65
2019-01-09T11:39:29.794Z,31.62
2019-01-09T11:41:59.787Z,33.23
2019-01-09T11:44:29.887Z,29.48
2019-01-09T11:47:00.221Z,33.92
2019-01-09T11:49:30.375Z,29.15
2019-01-09T11:52:00.531Z,28.60
2019-01-09T11:54:30.716Z,30.82
2019-01-09T11:57:00.818Z,33.42
2019-01-09T11:59:30.912Z,28.85
2019-01-09T12:02:00.970Z,29.37
2019-01-09T12:04:31.241Z,32.38
2019-01-09T12:07:01.458Z,31.50
2019-01-09T12:09:31.741Z,27.02
2019-01-09T12:12:01.731Z,34.60
2019-01-09T12:14:32.030Z,30.05
2019-01-09T12:17:02.147Z,33.08
2019-01-09T12:19:32.233Z,30.02
2019-01-09T12:22:02.288Z,32.83
2019-01-09T12:24:32.472Z,34.50
2019-01-09T12:27:02.423Z,33.13
2019-01-09T12:29:32.512Z,37.23
2019-01-09T12:32:02.581Z,34.35
2019-01-09T12:34:32.563Z,37.67
2019-01-09T12:37:02.664Z,37.65
2019-01-09T12:39:32.596Z,37.98
2019-01-09T12:42:02.617Z,34.75
2019-01-09T12:44:32.609Z,38.25
2019-01-09T12:47:02.854Z,36.20
2019-01-09T12:49:32.793Z,36.08
2019-01-09T12:52:03.722Z,37.15
2019-01-09T12:54:33.694Z,36.23
2019-01-09T12:57:03.826Z,37.03
2019-01-09T12:59:33.924Z,38.42
2019-01-09T13:02:03.917Z,43.68
2019-01-09T13:04:33.865Z,39.88
2019-01-09T13:07:03.900Z,39.48
2019-01-09T13:09:33.884Z,44.10
2019-01-09T13:12:03.891Z,37.00
2019-01-09T13:14:33.905Z,39.78
2019-01-09T13:17:11.654Z,39.98
2019-01-09T13:19:34.919Z,38.85
2019-01-09T13:22:04.985Z,40.67
2019-01-09T13:24:35.000Z,51.08
2019-01-09T13:27:04.835Z,52.08
2019-01-09T13:29:34.506Z,55.60
2019-01-09T13:32:04.417Z,56.75
2019-01-09T13:34:34.353Z,58.02
2019-01-09T13:37:04.510Z,53.52
2019-01-09T13:39:34.521Z,43.80
2019-01-09T13:42:04.847Z,44.03
2019-01-09T13:44:34.914Z,36.65
2019-01-09T13:47:06.968Z,34.98
2019-01-09T13:49:37.064Z,38.88
2019-01-09T13:52:07.779Z,38.17
2019-01-09T13:54:37.774Z,42.60
2019-01-09T13:57:09.404Z,45.50
2019-01-09T13:59:39.362Z,48.75
2019-01-09T14:02:09.415Z,57.78
2019-01-09T14:04:38.900Z,59.00
2019-01-09T14:07:08.913Z,61.88
2019-01-09T14:09:39.801Z,63.08
2019-01-09T14:12:09.882Z,65.75
2019-01-09T14:14:39.764Z,61.80
2019-01-09T14:17:09.880Z,65.70
2019-01-09T14:19:39.920Z,69.55
2019-01-09T14:22:09.852Z,69.03
2019-01-09T14:24:39.850Z,74.67
2019-01-09T14:27:09.810Z,68.37
2019-01-09T14:29:39.193Z,75.62
2019-01-09T14:32:09.554Z,78.72
2019-01-09T14:34:39.522Z,78.83
2019-01-09T14:37:09.590Z,81.87
2019-01-09T14:39:47.935Z,77.80
2019-01-09T14:42:12.268Z,77.15
2019-01-09T14:44:42.526Z,80.90
2019-01-09T14:47:12.683Z,78.37
2019-01-09T14:49:42.145Z,80.10
2019-01-09T14:52:12.147Z,77.80
2019-01-09T14:54:42.135Z,71.42
2019-01-09T14:57:12.217Z,79.62
2019-01-09T14:59:41.773Z,76.60
2019-01-09T15:02:11.944Z,74.65
2019-01-09T15:04:41.411Z,77.50
2019-01-09T15:07:11.495Z,72.37
2019-01-09T15:09:41.162Z,72.72
2019-01-09T15:12:10.541Z,72.23
2019-01-09T15:14:40.622Z,70.62
2019-01-09T15:17:10.135Z,64.30
2019-01-09T15:19:40.185Z,65.75
2019-01-09T15:22:10.208Z,71.45
2019-01-09T15:24:40.188Z,71.05
2019-01-09T15:27:10.077Z,70.47
2019-01-09T15:29:39.963Z,66.92
2019-01-09T15:32:10.088Z,65.32
2019-01-09T15:34:39.581Z,69.70
2019-01-09T15:37:09.763Z,70.50
2019-01-09T15:39:40.047Z,72.12
2019-01-09T15:42:10.111Z,75.05
2019-01-09T15:44:40.277Z,71.90
2019-01-09T15:47:10.409Z,70.90
2019-01-09T15:49:40.429Z,72.15
2019-01-09T15:52:09.939Z,71.50
2019-01-09T15:54:41.276Z,74.62
2019-01-09T15:57:11.475Z,94.97
2019-01-09T15:59:41.455Z,90.72
2019-01-09T16:02:11.962Z,89.87
2019-01-09T16:04:41.446Z,82.93
2019-01-09T16:07:10.836Z,85.17
2019-01-09T16:09:41.597Z,84.75
2019-01-09T16:12:11.709Z,80.85
2019-01-09T16:14:41.720Z,90.53
2019-01-09T16:17:11.088Z,91.07
2019-01-09T16:19:41.184Z,85.70
2019-01-09T16:22:10.643Z,84.00
2019-01-09T16:24:40.963Z,85.53
2019-01-09T16:27:10.987Z,90.67
2019-01-09T16:29:40.930Z,92.55
2019-01-09T16:32:10.889Z,113.37
2019-01-09T16:34:40.855Z,98.67
2019-01-09T16:37:12.079Z,105.65
2019-01-09T16:39:41.738Z,100.87
2019-01-09T16:42:11.695Z,111.62
2019-01-09T16:44:41.146Z,110.10
2019-01-09T16:47:10.603Z,112.68
2019-01-09T16:49:40.575Z,119.28
2019-01-09T16:52:10.173Z,115.83
2019-01-09T16:54:39.630Z,116.97
2019-01-09T16:57:09.179Z,113.50
2019-01-09T16:59:39.151Z,116.67
2019-01-09T17:02:08.580Z,114.50
2019-01-09T17:04:38.540Z,112.80
2019-01-09T17:07:08.611Z,118.00
2019-01-09T17:09:38.805Z,112.08
2019-01-09T17:12:08.204Z,112.00
2019-01-09T17:14:38.661Z,118.70
2019-01-09T17:17:08.120Z,121.47
2019-01-09T17:19:37.599Z,121.80
2019-01-09T17:22:07.280Z,126.27
2019-01-09T17:24:37.653Z,139.20
2019-01-09T17:27:11.240Z,140.92
2019-01-09T17:29:41.187Z,149.60
2019-01-09T17:32:10.647Z,152.50
2019-01-09T17:34:40.158Z,148.10
2019-01-09T17:37:09.467Z,142.90
2019-01-09T17:39:38.905Z,153.57
2019-01-09T17:42:08.345Z,140.37
2019-01-09T17:44:37.634Z,145.13
2019-01-09T17:47:09.156Z,143.80
2019-01-09T17:49:38.520Z,144.33
2019-01-09T17:52:07.895Z,140.10
2019-01-09T17:54:38.370Z,145.93
2019-01-09T17:57:07.690Z,144.50
2019-01-09T17:59:37.012Z,152.33
2019-01-09T18:02:06.718Z,146.50
2019-01-09T18:04:36.173Z,148.37
2019-01-09T18:07:05.490Z,140.17
2019-01-09T18:09:35.216Z,154.97
2019-01-09T18:12:04.894Z,160.63
2019-01-09T18:14:34.211Z,148.17
2019-01-09T18:17:03.678Z,156.70
2019-01-09T18:19:33.378Z,147.80
2019-01-09T18:22:02.791Z,148.47
2019-01-09T18:24:32.418Z,150.20
2019-01-09T18:27:02.025Z,144.63
2019-01-09T18:29:31.390Z,152.90
2019-01-09T18:32:07.731Z,155.53
2019-01-09T18:34:37.159Z,148.93
2019-01-09T18:37:18.424Z,148.53
2019-01-09T18:39:57.459Z,152.70
2019-01-09T18:42:38.671Z,143.33
2019-01-09T18:45:26.140Z,145.50
2019-01-09T18:48:22.816Z,143.33
2019-01-09T18:50:58.338Z,140.67
2019-01-09T18:53:28.255Z,147.87
2019-01-09T18:55:57.661Z,148.03
2019-01-09T18:58:27.307Z,155.93
2019-01-09T19:00:56.815Z,153.87
2019-01-09T19:03:26.118Z,154.43
2019-01-09T19:05:56.712Z,147.10
2019-01-09T19:08:26.038Z,144.30
2019-01-09T19:10:55.486Z,147.83
2019-01-09T19:13:24.951Z,146.50
2019-01-09T19:15:54.441Z,143.67
2019-01-09T19:18:24.080Z,145.70
2019-01-09T19:20:53.495Z,141.73
2019-01-09T19:23:23.096Z,140.03
2019-01-09T19:25:56.792Z,144.63
2019-01-09T19:28:35.270Z,141.67
2019-01-09T19:31:09.331Z,133.80
2019-01-09T19:33:38.734Z,136.73
2019-01-09T19:36:08.044Z,144.93
2019-01-09T19:38:38.237Z,142.13
2019-01-09T19:41:16.699Z,134.70
2019-01-09T19:43:39.030Z,131.13
2019-01-09T19:46:08.502Z,136.40
2019-01-09T19:48:37.906Z,139.83
2019-01-09T19:51:07.477Z,140.83
2019-01-09T19:53:37.042Z,139.07
2019-01-09T19:56:06.414Z,133.70
2019-01-09T19:58:35.867Z,143.83
2019-01-09T20:01:05.336Z,137.20
2019-01-09T20:03:34.728Z,132.70
2019-01-09T20:06:04.498Z,143.27
2019-01-09T20:08:33.943Z,140.13
2019-01-09T20:11:03.386Z,142.77
2019-01-09T20:13:33.528Z,138.25
2019-01-09T20:16:02.911Z,141.83
2019-01-09T20:18:32.286Z,145.83
2019-01-09T20:21:01.789Z,142.20
2019-01-09T20:23:31.100Z,139.17
2019-01-09T20:26:01.405Z,144.32
2019-01-09T20:28:31.153Z,152.80
2019-01-09T20:31:00.365Z,153.07
2019-01-09T20:33:29.657Z,170.80
2019-01-09T20:35:58.739Z,162.47
2019-01-09T20:38:28.417Z,167.73
2019-01-09T20:40:57.582Z,167.47
2019-01-09T20:43:26.970Z,178.67
2019-01-09T20:45:56.296Z,165.93
2019-01-09T20:48:25.868Z,173.60
2019-01-09T20:50:55.305Z,173.33
2019-01-09T20:53:24.703Z,171.67
2019-01-09T20:55:54.304Z,171.97
2019-01-09T20:58:23.886Z,166.07
2019-01-09T21:00:53.351Z,167.70
2019-01-09T21:03:22.453Z,169.10
2019-01-09T21:05:51.803Z,163.97
2019-01-09T21:08:20.931Z,165.63
2019-01-09T21:10:50.175Z,170.97
2019-01-09T21:13:19.640Z,161.60
2019-01-09T21:15:48.936Z,165.70
2019-01-09T21:18:18.326Z,167.07
2019-01-09T21:20:47.696Z,164.77
2019-01-09T21:23:17.075Z,166.93
2019-01-09T21:25:46.477Z,169.87
2019-01-09T21:28:15.967Z,183.43
2019-01-09T21:30:45.370Z,179.20
2019-01-09T21:33:14.865Z,192.47
2019-01-09T21:35:44.188Z,178.47
2019-01-09T21:38:13.633Z,165.20
2019-01-09T21:40:42.987Z,170.43
2019-01-09T21:43:12.345Z,172.90
2019-01-09T21:45:41.678Z,169.90
2019-01-09T21:48:11.066Z,162.47
2019-01-09T21:50:40.463Z,166.03
2019-01-09T21:53:09.871Z,153.80
2019-01-09T21:55:39.694Z,158.50
2019-01-09T21:58:10.228Z,150.80
2019-01-09T22:00:40.862Z,152.47
2019-01-09T22:03:10.271Z,159.40
2019-01-09T22:05:39.802Z,156.83
2019-01-09T22:08:09.165Z,163.13
2019-01-09T22:10:38.609Z,160.83
2019-01-09T22:13:07.926Z,175.83
2019-01-09T22:15:37.276Z,173.47
2019-01-09T22:18:06.583Z,187.30
2019-01-09T22:20:35.874Z,185.40
2019-01-09T22:23:05.334Z,199.80
2019-01-09T22:25:34.711Z,200.87
2019-01-09T22:28:04.451Z,196.03
2019-01-09T22:30:33.867Z,198.07
2019-01-09T22:33:03.251Z,203.33
2019-01-09T22:35:41.082Z,208.27
2019-01-09T22:38:04.005Z,200.70
2019-01-09T22:40:33.307Z,206.33
2019-01-09T22:43:02.780Z,204.00
2019-01-09T22:45:32.226Z,215.60
2019-01-09T22:48:01.644Z,206.43
2019-01-09T22:50:31.004Z,206.80
2019-01-09T22:53:00.575Z,200.17
2019-01-09T22:55:29.929Z,204.80
2019-01-09T22:57:59.338Z,210.33
2019-01-09T23:00:53.825Z,203.63
2019-01-09T23:03:23.526Z,201.27
2019-01-09T23:05:52.959Z,211.37
2019-01-09T23:08:22.400Z,217.23
2019-01-09T23:10:54.992Z,208.00
2019-01-09T23:13:22.840Z,225.33
2019-01-09T23:15:52.260Z,213.50
2019-01-09T23:18:21.859Z,225.33
2019-01-09T23:20:51.253Z,219.20
2019-01-09T23:23:20.827Z,212.80
2019-01-09T23:25:50.293Z,220.53
2019-01-09T23:28:19.655Z,208.77
2019-01-09T23:30:48.972Z,213.10
2019-01-09T23:33:18.519Z,189.80
2019-01-09T23:35:48.018Z,197.00
2019-01-09T23:38:17.471Z,195.70
2019-01-09T23:40:46.787Z,201.77
2019-01-09T23:43:16.181Z,198.10
2019-01-09T23:45:45.835Z,199.40
2019-01-09T23:48:15.183Z,189.17
2019-01-09T23:50:44.860Z,195.87
2019-01-09T23:53:14.132Z,204.47
2019-01-09T23:55:43.577Z,207.47
2019-01-09T23:58:13.131Z,199.97
